createdAt,value
2022-08-03T00:04:54.171Z,20.11
2022-08-03T00:09:55.754Z,19.97
2022-08-03T00:14:57.427Z,20.00
2022-08-03T00:19:59.171Z,20.10
2022-08-03T00:25:00.832Z,19.84
2022-08-03T00:30:02.528Z,19.94
2022-08-03T00:35:09.138Z,19.98
2022-08-03T00:40:14.406Z,20.03
2022-08-03T00:45:19.432Z,19.83
2022-08-03T00:50:23.377Z,19.46
2022-08-03T00:55:25.762Z,19.47
2022-08-03T01:00:28.221Z,19.42
2022-08-03T01:05:30.761Z,19.41
2022-08-03T01:10:39.847Z,19.32
2022-08-03T01:16:00.443Z,19.46
2022-08-03T01:21:07.621Z,19.43
2022-08-03T01:26:24.275Z,19.21
2022-08-03T01:32:59.547Z,18.91
2022-08-03T01:37:23.590Z,19.20
2022-08-03T01:42:26.408Z,19.05
2022-08-03T01:47:29.463Z,18.94
2022-08-03T01:52:33.737Z,18.82
2022-08-03T01:58:05.741Z,18.81
2022-08-03T02:03:01.571Z,18.72
2022-08-03T02:08:05.194Z,18.65
2022-08-03T02:13:08.580Z,18.87
2022-08-03T02:18:11.993Z,18.92
2022-08-03T02:23:17.189Z,18.76
2022-08-03T02:28:21.288Z,18.72
2022-08-03T02:33:34.213Z,18.44
2022-08-03T02:38:38.971Z,18.31
2022-08-03T02:44:06.535Z,18.51
2022-08-03T02:49:41.359Z,18.46
2022-08-03T02:54:26.388Z,18.39
2022-08-03T02:59:31.336Z,18.29
2022-08-03T03:04:33.871Z,18.49
2022-08-03T03:09:41.516Z,18.53
2022-08-03T03:14:44.945Z,18.21
2022-08-03T03:19:47.206Z,18.43
2022-08-03T03:24:51.756Z,18.37
2022-08-03T03:29:53.655Z,18.35
2022-08-03T03:34:56.953Z,18.02
2022-08-03T03:39:58.650Z,18.31
2022-08-03T03:45:04.326Z,18.14
2022-08-03T03:50:06.757Z,18.08
2022-08-03T03:55:08.487Z,17.98
2022-08-03T04:00:12.055Z,18.04
2022-08-03T04:05:33.424Z,17.96
2022-08-03T04:10:56.167Z,17.94
2022-08-03T04:15:59.433Z,18.08
2022-08-03T04:21:09.565Z,18.24
2022-08-03T04:26:13.537Z,18.27
2022-08-03T04:31:17.212Z,18.29
2022-08-03T04:36:23.085Z,18.33
2022-08-03T04:41:26.799Z,18.42
2022-08-03T04:46:33.131Z,18.50
2022-08-03T04:51:38.160Z,18.64
2022-08-03T04:56:41.770Z,18.76
2022-08-03T05:01:44.511Z,18.97
2022-08-03T05:06:48.008Z,19.29
2022-08-03T05:11:50.073Z,19.72
2022-08-03T05:16:51.651Z,19.80
2022-08-03T05:21:54.061Z,19.89
2022-08-03T05:26:55.713Z,19.95
2022-08-03T05:31:57.314Z,20.27
2022-08-03T05:36:59.003Z,20.41
2022-08-03T05:42:00.666Z,20.61
2022-08-03T05:47:02.226Z,20.58
2022-08-03T05:52:13.782Z,20.66
2022-08-03T05:57:16.901Z,21.11
2022-08-03T06:02:18.526Z,21.54
2022-08-03T06:07:20.249Z,21.85
2022-08-03T06:12:21.903Z,22.86
2022-08-03T06:17:23.733Z,23.45
2022-08-03T06:22:28.199Z,24.34
2022-08-03T06:27:37.173Z,25.10
2022-08-03T06:32:40.464Z,25.39
2022-08-03T06:37:46.896Z,25.43
2022-08-03T06:42:48.499Z,25.77
2022-08-03T06:48:05.009Z,26.22
2022-08-03T06:53:07.604Z,26.64
2022-08-03T06:58:09.248Z,26.98
2022-08-03T07:03:10.868Z,27.30
2022-08-03T07:08:12.873Z,27.43
2022-08-03T07:13:14.436Z,27.96
2022-08-03T07:18:16.103Z,28.62
2022-08-03T07:23:19.221Z,28.76
2022-08-03T07:28:21.536Z,28.76
2022-08-03T07:33:23.163Z,28.92
2022-08-03T07:38:24.842Z,28.81
2022-08-03T07:43:26.477Z,28.99
2022-08-03T07:48:28.075Z,29.18
2022-08-03T07:53:29.810Z,29.28
2022-08-03T07:58:32.031Z,29.62
2022-08-03T08:03:41.028Z,30.10
2022-08-03T08:08:59.429Z,29.82
2022-08-03T08:14:02.917Z,30.08
2022-08-03T08:19:04.680Z,30.42
2022-08-03T08:24:10.946Z,30.82
2022-08-03T08:29:23.095Z,30.56
2022-08-03T08:34:24.699Z,30.61
2022-08-03T08:39:26.334Z,30.78
2022-08-03T08:44:29.988Z,30.87
2022-08-03T08:49:33.040Z,31.24
2022-08-03T08:54:38.255Z,31.77
2022-08-03T08:59:48.839Z,31.77
2022-08-03T09:04:51.903Z,32.06
2022-08-03T09:10:08.472Z,31.77
2022-08-03T09:15:23.840Z,31.77
2022-08-03T09:20:28.527Z,31.81
2022-08-03T09:25:38.536Z,32.38
2022-08-03T09:30:42.583Z,32.47
2022-08-03T09:35:54.830Z,33.07
2022-08-03T09:41:00.219Z,33.02
2022-08-03T09:46:04.679Z,33.33
2022-08-03T09:51:13.550Z,33.78
2022-08-03T09:56:46.934Z,33.66
2022-08-03T10:01:48.826Z,33.31
2022-08-03T10:07:07.001Z,34.58
2022-08-03T10:12:09.671Z,35.17
2022-08-03T10:17:11.382Z,34.31
2022-08-03T10:22:16.179Z,34.87
2022-08-03T10:27:20.052Z,34.80
2022-08-03T10:32:49.353Z,34.55
2022-08-03T10:38:22.201Z,34.24
2022-08-03T10:43:33.918Z,34.52
2022-08-03T10:48:37.020Z,34.46
2022-08-03T10:53:44.051Z,34.42
2022-08-03T10:58:57.945Z,34.96
2022-08-03T11:03:59.801Z,34.98
2022-08-03T11:09:10.450Z,35.48
2022-08-03T11:14:21.510Z,35.60
2022-08-03T11:19:27.593Z,35.63
2022-08-03T11:24:42.540Z,35.53
2022-08-03T11:29:57.949Z,34.87
2022-08-03T11:35:27.246Z,34.64
2022-08-03T11:40:36.969Z,34.79
2022-08-03T11:45:38.921Z,34.80
2022-08-03T11:50:40.796Z,34.94
2022-08-03T11:55:44.495Z,34.87
2022-08-03T12:00:46.310Z,34.80
2022-08-03T12:05:53.600Z,35.41
2022-08-03T12:10:58.031Z,35.30
2022-08-03T12:15:59.860Z,34.62
2022-08-03T12:21:07.384Z,34.73
2022-08-03T12:26:10.175Z,34.68
2022-08-03T12:31:12.699Z,34.35
2022-08-03T12:36:14.389Z,34.74
2022-08-03T12:41:16.679Z,34.58
2022-08-03T12:46:19.800Z,34.92
2022-08-03T12:51:21.517Z,34.68
2022-08-03T12:56:23.957Z,34.70
2022-08-03T13:01:27.850Z,35.09
2022-08-03T13:06:29.626Z,35.48
2022-08-03T13:11:55.546Z,35.35
2022-08-03T13:16:52.940Z,35.17
2022-08-03T13:22:03.654Z,35.29
2022-08-03T13:28:12.469Z,35.08
2022-08-03T13:32:29.133Z,35.04
2022-08-03T13:37:32.394Z,34.89
2022-08-03T13:42:35.505Z,34.78
2022-08-03T13:47:37.924Z,34.68
2022-08-03T13:52:39.602Z,34.53
2022-08-03T13:58:11.637Z,34.86
2022-08-03T14:03:09.505Z,34.64
2022-08-03T14:08:14.734Z,34.19
2022-08-03T14:13:17.762Z,34.38
2022-08-03T14:18:28.764Z,34.30
2022-08-03T14:23:37.851Z,34.23
2022-08-03T14:28:40.315Z,34.04
2022-08-03T14:33:41.878Z,34.20
2022-08-03T14:38:43.477Z,34.22
2022-08-03T14:44:01.426Z,34.14
2022-08-03T14:50:32.631Z,34.10
2022-08-03T14:54:28.716Z,33.96
2022-08-03T14:59:55.888Z,33.68
2022-08-03T15:04:52.720Z,33.70
2022-08-03T15:09:54.354Z,33.74
2022-08-03T15:14:56.420Z,33.73
2022-08-03T15:20:01.317Z,33.58
2022-08-03T15:26:32.174Z,33.66
2022-08-03T15:30:36.073Z,33.54
2022-08-03T15:35:37.786Z,33.70
2022-08-03T15:40:39.577Z,33.67
2022-08-03T15:45:42.893Z,33.70
2022-08-03T15:50:44.568Z,34.12
2022-08-03T15:55:46.265Z,34.83
2022-08-03T16:00:49.059Z,36.31
2022-08-03T16:05:50.803Z,35.64
2022-08-03T16:10:52.426Z,35.70
2022-08-03T16:15:54.844Z,34.91
2022-08-03T16:20:59.469Z,34.32
2022-08-03T16:26:01.063Z,33.77
2022-08-03T16:31:02.739Z,33.36
2022-08-03T16:36:04.450Z,33.27
2022-08-03T16:41:06.124Z,33.22
2022-08-03T16:46:07.820Z,33.03
2022-08-03T16:51:09.461Z,33.02
2022-08-03T16:56:11.206Z,32.65
2022-08-03T17:01:21.444Z,32.62
2022-08-03T17:06:27.039Z,32.39
2022-08-03T17:11:38.844Z,32.28
2022-08-03T17:16:52.517Z,32.25
2022-08-03T17:22:10.958Z,32.15
2022-08-03T17:28:48.358Z,32.02
2022-08-03T17:32:57.883Z,31.97
2022-08-03T17:38:03.662Z,31.88
2022-08-03T17:44:08.129Z,31.86
2022-08-03T17:48:32.545Z,31.54
2022-08-03T17:53:38.586Z,31.48
2022-08-03T17:58:55.010Z,31.27
2022-08-03T18:04:02.910Z,31.20
2022-08-03T18:10:05.726Z,30.98
2022-08-03T18:14:57.707Z,30.95
2022-08-03T18:20:10.015Z,30.56
2022-08-03T18:25:17.747Z,30.30
2022-08-03T18:30:53.275Z,30.20
2022-08-03T18:35:58.685Z,29.88
2022-08-03T18:41:00.340Z,29.51
2022-08-03T18:46:06.178Z,29.25
2022-08-03T18:51:28.530Z,29.08
2022-08-03T18:56:58.194Z,28.79
2022-08-03T19:02:14.367Z,28.46
2022-08-03T19:07:24.958Z,28.19
2022-08-03T19:12:37.372Z,28.43
2022-08-03T19:17:53.705Z,27.91
2022-08-03T19:22:58.341Z,27.82
2022-08-03T19:28:00.899Z,27.64
2022-08-03T19:33:05.860Z,27.71
2022-08-03T19:38:09.705Z,27.22
2022-08-03T19:43:21.708Z,27.22
2022-08-03T19:48:29.459Z,27.04
2022-08-03T19:53:35.445Z,26.92
2022-08-03T19:58:39.256Z,27.00
2022-08-03T20:03:43.036Z,26.64
2022-08-03T20:08:45.719Z,26.49
2022-08-03T20:13:55.311Z,26.38
2022-08-03T20:18:57.022Z,26.24
2022-08-03T20:24:23.306Z,26.09
2022-08-03T20:30:06.132Z,25.96
2022-08-03T20:35:00.543Z,25.82
2022-08-03T20:40:02.850Z,25.75
2022-08-03T20:45:13.918Z,25.62
2022-08-03T20:50:31.302Z,25.71
2022-08-03T20:55:48.016Z,25.45
2022-08-03T21:00:57.566Z,25.51
2022-08-03T21:06:06.411Z,25.36
2022-08-03T21:11:16.457Z,25.23
2022-08-03T21:16:21.417Z,25.19
2022-08-03T21:21:23.996Z,25.27
2022-08-03T21:26:27.242Z,25.30
2022-08-03T21:31:28.932Z,25.24
2022-08-03T21:36:35.468Z,25.05
2022-08-03T21:41:39.164Z,24.89
2022-08-03T21:46:42.283Z,24.82
2022-08-03T21:51:45.266Z,24.71
2022-08-03T21:56:50.998Z,24.62
2022-08-03T22:01:55.271Z,24.45
2022-08-03T22:07:00.878Z,24.39
2022-08-03T22:12:03.078Z,24.26
2022-08-03T22:17:07.279Z,24.26
2022-08-03T22:22:13.917Z,24.17
2022-08-03T22:27:31.995Z,24.07
2022-08-03T22:32:33.774Z,23.98
2022-08-03T22:37:36.269Z,23.98
2022-08-03T22:42:40.371Z,23.85
2022-08-03T22:47:42.073Z,23.70
2022-08-03T22:52:44.922Z,23.82
2022-08-03T22:57:46.592Z,23.62
2022-08-03T23:03:00.229Z,23.47
2022-08-03T23:08:03.894Z,23.37
2022-08-03T23:13:06.698Z,23.32
2022-08-03T23:18:09.466Z,23.38
2022-08-03T23:23:11.787Z,23.27
2022-08-03T23:28:16.376Z,23.12
2022-08-03T23:33:18.717Z,23.14
2022-08-03T23:38:23.388Z,23.09
2022-08-03T23:43:44.975Z,22.90
2022-08-03T23:48:48.706Z,22.83
2022-08-03T23:54:08.598Z,22.73
2022-08-03T23:59:21.700Z,22.89
